createdAt,value
2022-08-05T00:01:35.602Z,14.50
2022-08-05T00:04:16.734Z,13.65
2022-08-05T00:06:47.119Z,14.52
2022-08-05T00:09:21.036Z,14.75
2022-08-05T00:11:55.618Z,14.80
2022-08-05T00:14:29.227Z,14.63
2022-08-05T00:16:58.009Z,14.43
2022-08-05T00:19:33.337Z,15.63
2022-08-05T00:22:11.065Z,14.32
2022-08-05T00:24:42.157Z,15.13
2022-08-05T00:27:16.794Z,15.05
2022-08-05T00:29:45.068Z,13.85
2022-08-05T00:32:15.473Z,14.38
2022-08-05T00:35:03.456Z,15.43
2022-08-05T00:37:51.376Z,15.52
2022-08-05T00:40:26.827Z,13.93
2022-08-05T00:42:57.897Z,14.00
2022-08-05T00:45:38.014Z,13.82
2022-08-05T00:48:12.170Z,13.77
2022-08-05T00:50:44.153Z,13.45
2022-08-05T00:54:00.643Z,14.63
2022-08-05T00:56:02.561Z,13.32
2022-08-05T00:58:30.667Z,12.77
2022-08-05T01:00:58.994Z,12.18
2022-08-05T01:03:31.101Z,12.63
2022-08-05T01:06:02.611Z,13.55
2022-08-05T01:08:42.951Z,13.02
2022-08-05T01:11:22.089Z,12.82
2022-08-05T01:14:08.473Z,12.20
2022-08-05T01:16:44.135Z,12.60
2022-08-05T01:19:56.547Z,12.48
2022-08-05T01:22:45.312Z,11.93
2022-08-05T01:25:40.999Z,12.30
2022-08-05T01:28:25.879Z,11.88
2022-08-05T01:30:58.060Z,11.45
2022-08-05T01:33:35.326Z,10.57
2022-08-05T01:36:13.229Z,10.50
2022-08-05T01:38:45.778Z,10.90
2022-08-05T01:41:20.983Z,11.40
2022-08-05T01:43:52.287Z,10.40
2022-08-05T01:46:42.019Z,10.88
2022-08-05T01:49:23.840Z,10.73
2022-08-05T01:51:58.392Z,10.27
2022-08-05T01:54:31.215Z,10.50
2022-08-05T01:58:10.035Z,10.55
2022-08-05T01:59:53.651Z,8.50
2022-08-05T02:02:28.464Z,10.48
2022-08-05T02:05:01.412Z,10.30
2022-08-05T02:07:32.135Z,10.20
2022-08-05T02:10:02.206Z,8.63
2022-08-05T02:12:41.058Z,11.18
2022-08-05T02:15:14.734Z,8.65
2022-08-05T02:18:30.759Z,8.20
2022-08-05T02:20:46.955Z,9.27
2022-08-05T02:23:18.758Z,8.70
2022-08-05T02:25:49.166Z,8.77
2022-08-05T02:28:29.067Z,7.85
2022-08-05T02:31:04.306Z,7.40
2022-08-05T02:33:38.925Z,8.60
2022-08-05T02:36:13.716Z,8.82
2022-08-05T02:38:53.523Z,8.15
2022-08-05T02:41:28.909Z,9.05
2022-08-05T02:44:13.505Z,10.60
2022-08-05T02:46:59.889Z,7.50
2022-08-05T02:49:36.048Z,7.80
2022-08-05T02:52:11.437Z,7.40
2022-08-05T02:54:42.786Z,8.90
2022-08-05T02:58:10.840Z,7.05
2022-08-05T03:00:12.691Z,9.43
2022-08-05T03:02:44.976Z,7.53
2022-08-05T03:05:15.056Z,7.00
2022-08-05T03:08:00.559Z,7.43
2022-08-05T03:10:32.673Z,7.65
2022-08-05T03:15:28.575Z,7.70
2022-08-05T03:17:59.484Z,7.88
2022-08-05T03:20:27.669Z,7.47
2022-08-05T03:22:58.042Z,6.78
2022-08-05T03:25:32.463Z,7.85
2022-08-05T03:28:03.384Z,7.32
2022-08-05T03:30:34.149Z,6.85
2022-08-05T03:33:06.302Z,7.13
2022-08-05T03:35:41.130Z,6.93
2022-08-05T03:38:11.808Z,6.07
2022-08-05T03:40:45.304Z,7.40
2022-08-05T03:44:08.996Z,7.93
2022-08-05T03:46:08.299Z,6.63
2022-08-05T03:48:37.820Z,9.07
2022-08-05T03:52:48.930Z,6.70
2022-08-05T03:56:01.562Z,6.85
2022-08-05T03:56:58.895Z,9.80
2022-08-05T03:59:46.763Z,7.18
2022-08-05T04:02:38.487Z,7.63
2022-08-05T04:05:10.371Z,6.47
2022-08-05T04:07:57.564Z,6.57
2022-08-05T04:10:27.530Z,6.72
2022-08-05T04:12:58.735Z,6.57
2022-08-05T04:15:27.980Z,6.07
2022-08-05T04:18:07.247Z,6.90
2022-08-05T04:20:37.646Z,6.50
2022-08-05T04:23:12.650Z,5.97
2022-08-05T04:25:57.276Z,6.22
2022-08-05T04:28:31.001Z,6.38
2022-08-05T04:31:00.804Z,6.38
2022-08-05T04:34:18.103Z,6.90
2022-08-05T04:36:46.241Z,6.07
2022-08-05T04:39:07.497Z,6.10
2022-08-05T04:41:36.930Z,6.97
2022-08-05T04:44:09.348Z,5.38
2022-08-05T04:46:38.735Z,7.88
2022-08-05T04:49:12.309Z,5.88
2022-08-05T04:51:44.732Z,6.55
2022-08-05T04:54:14.691Z,7.22
2022-08-05T04:56:43.687Z,8.65
2022-08-05T04:59:21.490Z,8.00
2022-08-05T05:02:07.155Z,6.95
2022-08-05T05:04:43.867Z,6.82
2022-08-05T05:07:17.482Z,6.55
2022-08-05T05:09:45.659Z,8.13
2022-08-05T05:12:13.753Z,8.43
2022-08-05T05:14:49.578Z,7.78
2022-08-05T05:17:23.911Z,7.13
2022-08-05T05:19:56.685Z,7.47
2022-08-05T05:22:26.979Z,7.95
2022-08-05T05:24:58.354Z,8.15
2022-08-05T05:27:44.309Z,8.43
2022-08-05T05:30:30.802Z,9.40
2022-08-05T05:33:03.909Z,10.90
2022-08-05T05:35:44.773Z,11.00
2022-08-05T05:38:14.824Z,10.75
2022-08-05T05:40:51.547Z,10.82
2022-08-05T05:43:27.918Z,11.05
2022-08-05T05:46:15.673Z,11.10
2022-08-05T05:48:46.308Z,11.82
2022-08-05T05:51:21.336Z,12.25
2022-08-05T05:53:57.392Z,13.18
2022-08-05T05:56:31.660Z,11.05
2022-08-05T05:59:05.113Z,12.85
2022-08-05T06:01:38.131Z,13.05
2022-08-05T06:04:12.196Z,15.18
2022-08-05T06:06:42.643Z,14.70
2022-08-05T06:09:17.485Z,14.65
2022-08-05T06:12:01.908Z,18.08
2022-08-05T06:14:31.491Z,19.35
2022-08-05T06:17:02.021Z,18.98
2022-08-05T06:19:56.775Z,16.77
2022-08-05T06:22:29.571Z,37.65
2022-08-05T06:24:59.376Z,45.30
2022-08-05T06:28:11.135Z,48.75
2022-08-05T06:30:20.153Z,45.60
2022-08-05T06:32:50.729Z,49.72
2022-08-05T06:36:03.702Z,55.28
2022-08-05T06:38:11.759Z,58.08
2022-08-05T06:40:44.487Z,58.53
2022-08-05T06:43:58.489Z,60.05
2022-08-05T06:46:06.551Z,59.83
2022-08-05T06:48:52.830Z,62.03
2022-08-05T06:51:29.716Z,71.50
2022-08-05T06:53:59.025Z,71.43
2022-08-05T06:56:28.649Z,72.28
2022-08-05T06:58:56.705Z,73.10
2022-08-05T07:01:31.985Z,76.25
2022-08-05T07:04:02.297Z,71.53
2022-08-05T07:06:32.018Z,69.68
2022-08-05T07:09:04.357Z,64.93
2022-08-05T07:11:36.906Z,64.20
2022-08-05T07:14:30.179Z,64.47
2022-08-05T07:18:01.761Z,64.00
2022-08-05T07:22:42.450Z,69.70
2022-08-05T07:25:54.805Z,72.90
2022-08-05T07:28:05.935Z,69.35
2022-08-05T07:30:39.836Z,69.07
2022-08-05T07:33:16.812Z,63.10
2022-08-05T07:36:04.527Z,60.85
2022-08-05T07:38:42.807Z,62.15
2022-08-05T07:42:08.072Z,66.25
2022-08-05T07:44:19.315Z,61.00
2022-08-05T07:46:50.607Z,66.03
2022-08-05T07:49:20.511Z,63.85
2022-08-05T07:51:54.206Z,66.28
2022-08-05T07:54:30.806Z,65.50
2022-08-05T07:57:41.800Z,64.72
2022-08-05T07:59:51.275Z,57.92
2022-08-05T08:02:19.422Z,58.30
2022-08-05T08:04:54.837Z,62.00
2022-08-05T08:07:23.493Z,57.45
2022-08-05T08:09:55.101Z,64.65
2022-08-05T08:12:33.409Z,60.13
2022-08-05T08:15:09.727Z,59.70
2022-08-05T08:17:44.001Z,60.38
2022-08-05T08:20:42.588Z,59.67
2022-08-05T08:23:07.553Z,57.75
2022-08-05T08:26:00.393Z,58.17
2022-08-05T08:28:36.746Z,62.88
2022-08-05T08:31:21.743Z,65.35
2022-08-05T08:33:51.580Z,61.72
2022-08-05T08:36:39.240Z,61.67
2022-08-05T08:39:15.648Z,70.47
2022-08-05T08:41:52.697Z,66.05
2022-08-05T08:45:16.839Z,65.65
2022-08-05T08:48:06.179Z,61.42
2022-08-05T08:50:31.212Z,63.88
2022-08-05T08:53:07.907Z,62.15
2022-08-05T08:56:03.653Z,64.95
2022-08-05T08:58:37.547Z,67.47
2022-08-05T09:01:15.838Z,65.65
2022-08-05T09:03:55.300Z,64.07
2022-08-05T09:06:29.344Z,65.15
2022-08-05T09:08:59.560Z,64.38
2022-08-05T09:11:52.941Z,59.63
2022-08-05T09:14:58.677Z,60.90
2022-08-05T09:17:08.051Z,62.92
2022-08-05T09:19:55.394Z,60.90
2022-08-05T09:22:32.011Z,63.13
2022-08-05T09:25:13.782Z,67.60
2022-08-05T09:28:03.800Z,66.50
2022-08-05T09:30:35.229Z,63.70
2022-08-05T09:33:05.446Z,60.25
2022-08-05T09:35:34.963Z,62.95
2022-08-05T09:38:16.304Z,61.33
2022-08-05T09:40:53.929Z,62.22
2022-08-05T09:43:40.578Z,65.30
2022-08-05T09:46:27.249Z,58.75
2022-08-05T09:49:06.754Z,63.67
2022-08-05T09:51:40.000Z,65.28
2022-08-05T09:54:10.059Z,62.13
2022-08-05T09:56:40.477Z,61.78
2022-08-05T09:59:19.760Z,59.53
2022-08-05T10:01:48.387Z,67.55
2022-08-05T10:04:38.516Z,62.63
2022-08-05T10:07:21.082Z,65.40
2022-08-05T10:10:14.403Z,64.22
2022-08-05T10:12:49.768Z,65.22
2022-08-05T10:15:21.578Z,59.22
2022-08-05T10:18:08.811Z,58.92
2022-08-05T10:20:40.082Z,60.95
2022-08-05T10:23:34.264Z,59.15
2022-08-05T10:26:01.964Z,58.85
2022-08-05T10:28:33.716Z,60.42
2022-08-05T10:32:49.648Z,59.45
2022-08-05T10:33:54.262Z,58.58
2022-08-05T10:36:23.572Z,57.42
2022-08-05T10:39:04.990Z,60.30
2022-08-05T10:41:44.869Z,59.47
2022-08-05T10:44:19.302Z,61.95
2022-08-05T10:46:50.967Z,62.75
2022-08-05T10:49:26.593Z,62.53
2022-08-05T10:52:00.180Z,62.40
2022-08-05T10:54:56.318Z,60.20
2022-08-05T10:57:31.992Z,64.45
2022-08-05T11:00:19.568Z,76.70
2022-08-05T11:03:25.434Z,67.38
2022-08-05T11:06:16.055Z,65.97
2022-08-05T11:09:32.115Z,65.65
2022-08-05T11:12:45.335Z,64.10
2022-08-05T11:15:22.379Z,64.88
2022-08-05T11:17:59.953Z,65.97
2022-08-05T11:20:46.214Z,60.42
2022-08-05T11:24:03.784Z,59.75
2022-08-05T11:26:32.077Z,62.17
2022-08-05T11:29:13.983Z,63.80
2022-08-05T11:31:56.968Z,63.83
2022-08-05T11:34:50.858Z,63.38
2022-08-05T11:38:30.350Z,65.45
2022-08-05T11:41:35.578Z,63.05
2022-08-05T11:44:04.763Z,61.75
2022-08-05T11:46:36.873Z,66.05
2022-08-05T11:49:10.028Z,63.33
2022-08-05T11:51:43.721Z,61.63
2022-08-05T11:54:33.674Z,68.63
2022-08-05T11:57:08.418Z,66.70
2022-08-05T11:59:54.758Z,68.75
2022-08-05T12:02:30.134Z,65.47
2022-08-05T12:05:06.884Z,64.68
2022-08-05T12:08:10.443Z,62.65
2022-08-05T12:10:42.883Z,63.47
2022-08-05T12:13:28.009Z,67.75
2022-08-05T12:16:14.693Z,62.58
2022-08-05T12:18:52.466Z,63.03
2022-08-05T12:21:26.788Z,63.80
2022-08-05T12:24:06.896Z,62.83
2022-08-05T12:26:36.442Z,65.03
2022-08-05T12:29:09.842Z,60.60
2022-08-05T12:31:53.555Z,60.90
2022-08-05T12:34:24.027Z,61.15
2022-08-05T12:36:57.420Z,63.75
2022-08-05T12:39:28.172Z,59.30
2022-08-05T12:42:14.665Z,61.22
2022-08-05T12:44:44.567Z,56.40
2022-08-05T12:47:17.175Z,62.95
2022-08-05T12:50:03.389Z,64.63
2022-08-05T12:52:41.610Z,60.80
2022-08-05T12:55:21.967Z,62.65
2022-08-05T12:58:52.426Z,60.53
2022-08-05T13:02:04.265Z,62.55
2022-08-05T13:03:33.423Z,57.35
2022-08-05T13:06:03.006Z,57.50
2022-08-05T13:08:32.992Z,53.42
2022-08-05T13:11:02.434Z,54.17
2022-08-05T13:14:04.639Z,56.00
2022-08-05T13:16:25.128Z,58.15
2022-08-05T13:18:58.875Z,59.97
2022-08-05T13:21:28.515Z,57.47
2022-08-05T13:24:08.930Z,57.28
2022-08-05T13:26:41.655Z,58.38
2022-08-05T13:29:37.573Z,58.58
2022-08-05T13:32:06.704Z,58.67
2022-08-05T13:34:35.224Z,58.10
2022-08-05T13:37:07.331Z,58.28
2022-08-05T13:40:13.838Z,56.10
2022-08-05T13:42:27.281Z,65.28
2022-08-05T13:44:56.379Z,56.13
2022-08-05T13:47:35.809Z,56.97
2022-08-05T13:50:16.905Z,58.25
2022-08-05T13:52:45.285Z,56.33
2022-08-05T13:55:40.918Z,56.10
2022-08-05T13:58:07.548Z,58.70
2022-08-05T14:00:39.431Z,58.00
2022-08-05T14:03:09.822Z,53.97
2022-08-05T14:06:04.922Z,59.67
2022-08-05T14:08:27.656Z,59.45
2022-08-05T14:11:20.623Z,60.97
2022-08-05T14:13:54.930Z,71.78
2022-08-05T14:16:26.044Z,68.20
2022-08-05T14:18:54.144Z,66.32
2022-08-05T14:22:08.545Z,65.88
2022-08-05T14:24:12.309Z,66.68
2022-08-05T14:27:08.571Z,63.92
2022-08-05T14:29:31.287Z,62.38
2022-08-05T14:32:02.558Z,61.13
2022-08-05T14:34:40.443Z,61.80
2022-08-05T14:37:08.806Z,62.25
2022-08-05T14:39:49.442Z,61.65
2022-08-05T14:42:26.229Z,63.72
2022-08-05T14:44:54.367Z,61.03
2022-08-05T14:48:02.724Z,61.30
2022-08-05T14:50:18.454Z,58.95
2022-08-05T14:52:58.349Z,70.15
2022-08-05T14:55:38.501Z,65.70
2022-08-05T14:58:13.704Z,66.05
2022-08-05T15:00:58.476Z,65.03
2022-08-05T15:03:39.141Z,63.65
2022-08-05T15:06:14.901Z,63.75
2022-08-05T15:08:59.654Z,66.53
2022-08-05T15:11:52.642Z,71.63
2022-08-05T15:14:35.083Z,74.07
2022-08-05T15:17:45.059Z,73.78
2022-08-05T15:19:58.310Z,77.22
2022-08-05T15:22:27.871Z,75.97
2022-08-05T15:24:59.370Z,79.45
2022-08-05T15:27:32.233Z,80.38
2022-08-05T15:30:06.599Z,73.65
2022-08-05T15:32:34.803Z,144.52
2022-08-05T15:35:10.575Z,84.95
2022-08-05T15:38:33.475Z,86.20
2022-08-05T15:40:58.793Z,85.57
2022-08-05T15:43:20.212Z,188.98
2022-08-05T15:46:00.123Z,85.22
2022-08-05T15:48:29.997Z,84.22
2022-08-05T15:51:03.302Z,85.05
2022-08-05T15:53:38.300Z,87.50
2022-08-05T15:56:18.884Z,90.13
2022-08-05T15:58:47.450Z,85.20
2022-08-05T16:01:18.136Z,89.90
2022-08-05T16:03:48.393Z,84.55
2022-08-05T16:06:19.610Z,87.97
2022-08-05T16:08:51.386Z,88.50
2022-08-05T16:11:42.508Z,85.25
2022-08-05T16:14:17.265Z,82.70
2022-08-05T16:16:47.281Z,81.10
2022-08-05T16:19:18.928Z,82.85
2022-08-05T16:22:01.195Z,85.40
2022-08-05T16:24:41.897Z,83.40
2022-08-05T16:27:32.262Z,82.28
2022-08-05T16:30:23.348Z,80.57
2022-08-05T16:32:56.116Z,90.95
2022-08-05T16:35:27.806Z,90.40
2022-08-05T16:38:11.925Z,90.05
2022-08-05T16:40:52.024Z,90.43
2022-08-05T16:43:25.037Z,92.22
2022-08-05T16:46:06.893Z,92.15
2022-08-05T16:48:39.393Z,90.75
2022-08-05T16:51:10.052Z,98.63
2022-08-05T16:54:03.141Z,93.10
2022-08-05T16:56:29.430Z,92.45
2022-08-05T16:58:58.220Z,94.05
2022-08-05T17:01:27.021Z,16.75
2022-08-05T17:04:16.462Z,16.10
2022-08-05T17:06:53.166Z,18.38
2022-08-05T17:09:23.054Z,16.83
2022-08-05T17:11:56.003Z,16.77
2022-08-05T17:14:37.137Z,18.65
2022-08-05T17:17:14.238Z,18.95
2022-08-05T17:19:46.113Z,18.25
2022-08-05T17:22:25.022Z,18.60
2022-08-05T17:24:56.872Z,19.02
2022-08-05T17:27:34.344Z,21.33
2022-08-05T17:30:03.389Z,19.73
2022-08-05T17:32:33.709Z,19.13
2022-08-05T17:35:04.267Z,19.45
2022-08-05T17:37:41.948Z,19.98
2022-08-05T17:40:15.939Z,18.85
2022-08-05T17:42:51.930Z,16.52
2022-08-05T17:45:22.395Z,15.30
2022-08-05T17:47:56.050Z,16.70
2022-08-05T17:50:28.517Z,17.83
2022-08-05T17:53:00.021Z,17.77
2022-08-05T17:55:38.388Z,15.25
2022-08-05T17:58:13.778Z,17.73
2022-08-05T18:00:47.797Z,13.82
2022-08-05T18:03:56.538Z,14.50
2022-08-05T18:06:11.915Z,12.45
2022-08-05T18:08:44.814Z,12.30
2022-08-05T18:11:23.329Z,12.52
2022-08-05T18:13:54.909Z,11.98
2022-08-05T18:16:23.600Z,10.93
2022-08-05T18:18:51.694Z,13.20
2022-08-05T18:21:22.893Z,13.60
2022-08-05T18:23:54.868Z,13.35
2022-08-05T18:26:27.593Z,12.73
2022-08-05T18:28:57.470Z,12.45
2022-08-05T18:31:25.830Z,11.43
2022-08-05T18:34:02.260Z,11.02
2022-08-05T18:36:31.885Z,12.35
2022-08-05T18:38:59.958Z,11.10
2022-08-05T18:41:54.956Z,9.70
2022-08-05T18:44:33.360Z,7.50
2022-08-05T18:47:04.958Z,5.50
2022-08-05T18:49:58.422Z,6.50
2022-08-05T18:52:50.840Z,6.22
2022-08-05T18:55:21.572Z,5.97
2022-08-05T18:57:53.838Z,5.78
2022-08-05T19:00:29.110Z,4.70
2022-08-05T19:03:04.262Z,4.53
2022-08-05T19:06:13.002Z,4.78
2022-08-05T19:08:30.467Z,4.28
2022-08-05T19:11:04.656Z,4.53
2022-08-05T19:13:35.732Z,4.75
2022-08-05T19:16:05.302Z,4.45
2022-08-05T19:18:53.945Z,4.82
2022-08-05T19:21:26.097Z,4.63
2022-08-05T19:24:07.164Z,5.68
2022-08-05T19:26:54.275Z,5.15
2022-08-05T19:29:26.764Z,3.97
2022-08-05T19:32:05.439Z,4.53
2022-08-05T19:34:36.898Z,4.78
2022-08-05T19:37:06.703Z,4.72
2022-08-05T19:39:45.685Z,3.22
2022-08-05T19:42:19.458Z,3.95
2022-08-05T19:45:05.749Z,3.15
2022-08-05T19:47:34.570Z,3.63
2022-08-05T19:50:07.907Z,8.65
2022-08-05T19:52:40.692Z,2.75
2022-08-05T19:56:14.416Z,3.58
2022-08-05T19:58:14.464Z,3.42
2022-08-05T20:00:47.857Z,2.67
2022-08-05T20:03:16.105Z,3.17
2022-08-05T20:05:51.312Z,2.90
2022-08-05T20:08:20.308Z,5.15
2022-08-05T20:10:50.009Z,3.85
2022-08-05T20:13:30.033Z,2.42
2022-08-05T20:16:07.800Z,3.13
2022-08-05T20:18:37.096Z,2.92
2022-08-05T20:21:06.568Z,2.50
2022-08-05T20:23:40.122Z,2.08
2022-08-05T20:26:21.649Z,2.28
2022-08-05T20:28:55.632Z,2.42
2022-08-05T20:31:37.313Z,3.70
2022-08-05T20:34:14.085Z,2.60
2022-08-05T20:36:43.828Z,2.42
2022-08-05T20:39:13.019Z,4.03
2022-08-05T20:41:45.049Z,3.95
2022-08-05T20:44:17.743Z,2.95
2022-08-05T20:46:52.751Z,2.60
2022-08-05T20:49:24.576Z,3.25
2022-08-05T20:51:54.614Z,3.33
2022-08-05T20:54:43.631Z,1.95
2022-08-05T20:57:42.628Z,1.98
2022-08-05T21:00:20.787Z,1.70
2022-08-05T21:03:01.186Z,2.97
2022-08-05T21:05:47.665Z,3.13
2022-08-05T21:08:17.961Z,1.95
2022-08-05T21:10:48.583Z,2.17
2022-08-05T21:13:26.567Z,3.20
2022-08-05T21:16:08.557Z,2.60
2022-08-05T21:18:36.683Z,3.63
2022-08-05T21:21:05.329Z,2.78
2022-08-05T21:23:37.031Z,2.83
2022-08-05T21:26:08.107Z,2.47
2022-08-05T21:28:47.939Z,2.67
2022-08-05T21:31:19.101Z,5.97
2022-08-05T21:33:49.777Z,2.13
2022-08-05T21:36:29.989Z,2.78
2022-08-05T21:39:01.127Z,2.92
2022-08-05T21:41:34.225Z,2.78
2022-08-05T21:44:05.855Z,1.70
2022-08-05T21:46:34.857Z,4.63
2022-08-05T21:49:07.290Z,2.22
2022-08-05T21:52:27.156Z,3.63
2022-08-05T21:54:27.983Z,2.60
2022-08-05T21:57:29.644Z,3.90
2022-08-05T22:00:10.701Z,2.58
2022-08-05T22:02:39.386Z,1.63
2022-08-05T22:05:15.167Z,2.47
2022-08-05T22:07:58.904Z,3.35
2022-08-05T22:10:28.318Z,3.60
2022-08-05T22:12:58.720Z,2.80
2022-08-05T22:16:01.703Z,2.72
2022-08-05T22:18:19.591Z,2.03
2022-08-05T22:20:55.089Z,2.50
2022-08-05T22:24:03.201Z,1.88
2022-08-05T22:26:49.864Z,5.32
2022-08-05T22:29:26.259Z,2.35
2022-08-05T22:31:59.593Z,1.95
2022-08-05T22:34:35.748Z,2.30
2022-08-05T22:37:08.258Z,2.47
2022-08-05T22:39:42.797Z,3.58
2022-08-05T22:42:26.122Z,2.25
2022-08-05T22:44:56.794Z,1.75
2022-08-05T22:47:29.365Z,1.90
2022-08-05T22:50:19.698Z,3.17
2022-08-05T22:52:48.114Z,3.20
2022-08-05T22:55:19.608Z,2.05
2022-08-05T22:57:49.333Z,2.03
2022-08-05T23:00:20.821Z,2.17
2022-08-05T23:02:52.161Z,3.40
2022-08-05T23:05:21.902Z,2.33
2022-08-05T23:07:51.196Z,3.22
2022-08-05T23:10:20.822Z,1.95
2022-08-05T23:12:55.013Z,2.67
2022-08-05T23:15:27.047Z,5.30
2022-08-05T23:18:03.548Z,2.45
2022-08-05T23:20:37.236Z,1.95
2022-08-05T23:23:08.697Z,2.75
2022-08-05T23:25:51.688Z,3.03
2022-08-05T23:28:27.637Z,3.22
2022-08-05T23:31:16.444Z,2.83
2022-08-05T23:34:04.199Z,2.08
2022-08-05T23:36:39.866Z,1.92
2022-08-05T23:39:17.097Z,4.88
2022-08-05T23:41:52.064Z,2.00
2022-08-05T23:44:25.011Z,2.80
2022-08-05T23:46:56.095Z,3.10
2022-08-05T23:49:35.702Z,2.58
2022-08-05T23:52:22.129Z,2.15
2022-08-05T23:54:54.731Z,2.03
2022-08-05T23:57:24.575Z,2.17
